This is the latest recevied weather packets stored in our database for station/object DH1NAI-6. If no packets are shown the sender has not sent any weather packets the latest 10 day(s).
| Time | Temp. | Humidity | Pressure | Rain* | Wind** | Luminosity | Snow |
|---|---|---|---|---|---|---|---|
| 1778406079 | 17.78° C | 68% | 1010.5 hPa | 0 mm | - | 213 W/m² | - |
| 1778405455 | 17.78° C | 69% | 1010.6 hPa | 0 mm | - | 201 W/m² | - |
| 1778404832 | 17.22° C | 69% | 1010.6 hPa | 0 mm | - | 194 W/m² | - |
| 1778404224 | 17.22° C | 72% | 1010.6 hPa | 0 mm | - | 195 W/m² | - |
| 1778403616 | 16.67° C | 71% | 1010.8 hPa | 0 mm | - | 80 W/m² | - |
| 1778403007 | 16.67° C | 73% | 1010.5 hPa | 0 mm | - | 84 W/m² | - |
| 1778402400 | 16.67° C | 69% | 1010.7 hPa | 0 mm | - | 185 W/m² | - |
| 1778401791 | 16.67° C | 71% | 1010.7 hPa | 0 mm | - | 143 W/m² | - |
| 1778401184 | 16.11° C | 71% | 1011 hPa | 0 mm | - | 112 W/m² | - |
| 1778400571 | 15.56° C | 71% | 1010.8 hPa | 0 mm | - | 180 W/m² | - |
| 1778399968 | 15.56° C | 71% | 1011.1 hPa | 0 mm | - | 169 W/m² | - |
| 1778399360 | 15.56° C | 73% | 1011 hPa | 0 mm | - | 146 W/m² | - |
| 1778398736 | 13.89° C | 77% | 1011.1 hPa | 0 mm | - | 144 W/m² | - |
| 1778398112 | 13.33° C | 79% | 1011.1 hPa | 0 mm | - | 45 W/m² | - |
| 1778397503 | 11.67° C | 84% | 1011 hPa | 0 mm | - | 66 W/m² | - |
| 1778396896 | 12.78° C | 82% | 1011.3 hPa | 0 mm | - | 96 W/m² | - |
| 1778396288 | 11.67° C | 85% | 1011.4 hPa | 0 mm | - | 78 W/m² | - |
| 1778395680 | 11.11° C | 87% | 1011.4 hPa | 0 mm | - | 62 W/m² | - |
| 1778395072 | 10.56° C | 89% | 1011.3 hPa | 0 mm | - | 55 W/m² | - |
| 1778394464 | 10° C | 89% | 1011.3 hPa | 0 mm | - | 47 W/m² | - |
| 1778393851 | 10° C | 90% | 1011.5 hPa | 0 mm | - | 36 W/m² | - |
| 1778393248 | 9.44° C | 90% | 1011.5 hPa | 0 mm | - | 28 W/m² | - |
| 1778392640 | 9.44° C | 91% | 1011.5 hPa | 0 mm | - | 27 W/m² | - |
| 1778392016 | 9.44° C | 91% | 1011.7 hPa | 0 mm | - | 23 W/m² | - |
| 1778391392 | 8.89° C | 91% | 1011.5 hPa | 0 mm | - | 22 W/m² | - |
* Rain latest hour (hover to see other rain measurements)
** Current wind speed in m/s (hover to see current wind gust speed)